Time;durP1;ratioP1;P1;durP2;ratioP2;P2;SDS_P1;SDS_P2;PMS_P1;PMS_P2;Temp;Humidity;BMP_temperature;BMP_pressure;BME280_temperature;BME280_humidity;BME280_pressure;Samples;Min_cycle;Max_cycle;Signal;HPM_P1;HPM_P2
2023/07/13 00:01:49;;;;;;;4.90;2.60;;;;;;;26.25;63.30;101552.73;107116;1253;22657;-49
2023/07/13 00:04:18;;;;;;;3.20;2.70;;;;;;;26.25;63.25;101547.04;107138;1252;25258;-49
2023/07/13 00:06:46;;;;;;;4.00;2.50;;;;;;;26.25;63.19;101546.71;107086;1261;26475;-49
2023/07/13 00:09:16;;;;;;;4.80;2.40;;;;;;;26.25;63.02;101551.73;107065;1253;25353;-49
2023/07/13 00:11:44;;;;;;;5.40;2.30;;;;;;;26.25;63.13;101552.58;107048;1253;25402;-49
2023/07/13 00:14:11;;;;;;;3.50;2.10;;;;;;;26.24;62.86;101556.57;107007;1265;24203;-49
2023/07/13 00:16:43;;;;;;;4.40;2.60;;;;;;;26.24;62.75;101552.66;106745;1269;25363;-49
2023/07/13 00:19:11;;;;;;;5.80;2.40;;;;;;;26.24;62.67;101545.73;107062;1257;25457;-49
2023/07/13 00:21:39;;;;;;;5.70;2.50;;;;;;;26.25;62.58;101543.89;107081;1262;25412;-49
2023/07/13 00:24:08;;;;;;;5.90;2.40;;;;;;;26.24;62.57;101539.28;107144;1257;25335;-49
2023/07/13 00:26:35;;;;;;;4.60;2.40;;;;;;;26.25;62.41;101540.33;107028;1259;25325;-49
2023/07/13 00:29:03;;;;;;;3.10;2.10;;;;;;;26.24;62.21;101534.13;106844;1267;25412;-49
2023/07/13 00:31:30;;;;;;;5.20;2.20;;;;;;;26.25;62.14;101535.31;107018;1257;23381;-49
2023/07/13 00:33:57;;;;;;;4.70;2.30;;;;;;;26.26;62.04;101532.80;106834;1268;25365;-49
2023/07/13 00:36:24;;;;;;;5.30;2.50;;;;;;;26.26;62.03;101526.53;107187;1257;25469;-49
2023/07/13 00:38:51;;;;;;;5.10;2.70;;;;;;;26.28;62.22;101521.75;107155;1262;25340;-49
2023/07/13 00:41:18;;;;;;;4.30;2.40;;;;;;;26.27;62.36;101519.57;106793;1265;25466;-49
2023/07/13 00:43:46;;;;;;;4.40;2.60;;;;;;;26.27;62.47;101519.55;107187;1256;25440;-49
2023/07/13 00:46:24;;;;;;;3.10;2.60;;;;;;;26.26;62.58;101522.96;106822;1259;25482;-49
2023/07/13 00:48:52;;;;;;;6.10;2.70;;;;;;;26.28;62.71;101521.98;106924;1259;25482;-49
2023/07/13 00:51:22;;;;;;;3.90;2.90;;;;;;;26.28;62.83;101526.36;107046;1264;25363;-49
2023/07/13 00:53:50;;;;;;;4.10;2.50;;;;;;;26.28;62.96;101529.61;107224;1253;24208;-49
2023/07/13 00:56:17;;;;;;;5.20;2.90;;;;;;;26.28;62.98;101531.38;107190;1267;25380;-48
2023/07/13 00:58:45;;;;;;;6.40;2.70;;;;;;;26.28;63.17;101531.05;107125;1263;22536;-49
2023/07/13 01:01:12;;;;;;;4.00;3.00;;;;;;;26.28;63.28;101527.09;107030;1257;25332;-49
2023/07/13 01:03:41;;;;;;;7.10;2.70;;;;;;;26.29;63.42;101522.61;107129;1253;23057;-49
2023/07/13 01:06:08;;;;;;;5.70;2.70;;;;;;;26.28;63.57;101525.30;106841;1265;25335;-49
2023/07/13 01:08:37;;;;;;;4.40;2.60;;;;;;;26.29;63.60;101526.69;106782;1262;25384;-50
2023/07/13 01:11:03;;;;;;;4.50;3.00;;;;;;;26.28;63.76;101525.30;107134;1261;26115;-49
2023/07/13 01:13:31;;;;;;;6.00;2.60;;;;;;;26.28;63.96;101518.41;107180;1253;25466;-48
2023/07/13 01:15:59;;;;;;;3.90;2.80;;;;;;;26.28;64.17;101517.48;106918;1265;25396;-49
2023/07/13 01:18:28;;;;;;;5.80;3.00;;;;;;;26.28;64.27;101513.44;106943;1263;22516;-49
2023/07/13 01:21:04;;;;;;;3.70;2.50;;;;;;;26.27;64.44;101507.09;107101;1256;25380;-49
2023/07/13 01:23:32;;;;;;;5.10;3.20;;;;;;;26.28;64.32;101506.13;107272;1259;25265;-49
2023/07/13 01:26:01;;;;;;;6.60;3.10;;;;;;;26.27;64.48;101498.18;106878;1267;25394;-49
2023/07/13 01:28:29;;;;;;;5.90;3.20;;;;;;;26.27;64.51;101499.59;107132;1252;25450;-49
2023/07/13 01:31:02;;;;;;;8.50;3.00;;;;;;;26.27;64.73;101498.33;107074;1263;25502;-49
2023/07/13 01:33:29;;;;;;;6.00;3.20;;;;;;;26.28;64.79;101489.57;106789;1270;25350;-49
2023/07/13 01:35:59;;;;;;;5.60;3.30;;;;;;;26.27;64.79;101480.78;106942;1263;25397;-49
2023/07/13 01:38:26;;;;;;;5.20;3.40;;;;;;;26.27;65.03;101477.05;106783;1267;25578;-49
2023/07/13 01:40:54;;;;;;;5.70;2.90;;;;;;;26.26;65.09;101471.75;106955;1254;25504;-49
2023/07/13 01:43:30;;;;;;;6.90;2.90;;;;;;;26.26;65.25;101475.34;106967;1254;25477;-49
2023/07/13 01:45:59;;;;;;;5.80;3.50;;;;;;;26.25;65.17;101470.20;106821;1272;25478;-49
2023/07/13 01:48:47;;;;;;;7.50;2.50;;;;;;;26.25;65.29;101466.66;106916;1254;25466;-49
2023/07/13 01:51:15;;;;;;;5.10;3.10;;;;;;;26.25;65.44;101463.66;107077;1264;25353;-49
2023/07/13 01:53:46;;;;;;;5.40;2.80;;;;;;;26.26;65.33;101458.98;107020;1254;25452;-49
2023/07/13 01:56:13;;;;;;;3.80;2.70;;;;;;;26.25;65.29;101456.16;107019;1265;25353;-49
2023/07/13 01:58:41;;;;;;;7.30;2.70;;;;;;;26.26;65.35;101457.55;107054;1256;25468;-50
2023/07/13 02:01:08;;;;;;;6.80;3.20;;;;;;;26.26;65.24;101453.11;106859;1254;22651;-49
2023/07/13 02:03:36;;;;;;;5.70;3.10;;;;;;;26.26;65.29;101451.85;107032;1256;22629;-49
2023/07/13 02:06:03;;;;;;;10.30;3.30;;;;;;;26.22;65.37;101449.16;106488;1266;25357;-49
2023/07/13 02:08:35;;;;;;;6.60;2.80;;;;;;;26.23;65.41;101450.27;106854;1258;25400;-49
2023/07/13 02:11:02;;;;;;;7.50;3.10;;;;;;;26.24;65.31;101446.13;107086;1264;22548;-49
2023/07/13 02:13:30;;;;;;;4.80;2.60;;;;;;;26.25;65.16;101443.55;106848;1257;25335;-49
2023/07/13 02:15:57;;;;;;;6.90;3.10;;;;;;;26.26;64.95;101444.39;107108;1253;22750;-49
2023/07/13 02:18:25;;;;;;;4.40;2.80;;;;;;;26.26;64.81;101452.90;106921;1262;25322;-51
2023/07/13 02:20:53;;;;;;;8.30;3.00;;;;;;;26.27;64.64;101463.00;107121;1259;25466;-50
2023/07/13 02:23:22;;;;;;;4.90;2.70;;;;;;;26.33;64.35;101466.44;106888;1265;25518;-49
2023/07/13 02:25:49;;;;;;;4.50;2.90;;;;;;;26.35;64.31;101474.63;106532;1260;24244;-51
2023/07/13 02:28:16;;;;;;;6.50;2.80;;;;;;;26.36;64.25;101477.92;106580;1261;25456;-50
2023/07/13 02:30:43;;;;;;;4.80;2.80;;;;;;;26.37;64.19;101486.20;107081;1259;25491;-49
2023/07/13 02:33:10;;;;;;;5.30;3.30;;;;;;;26.38;64.09;101489.67;107059;1254;25363;-50
2023/07/13 02:35:40;;;;;;;4.20;2.90;;;;;;;26.38;63.79;101485.38;107078;1265;24266;-49
2023/07/13 02:38:08;;;;;;;7.00;3.10;;;;;;;26.39;63.56;101479.27;107062;1256;25412;-50
2023/07/13 02:40:35;;;;;;;3.80;2.80;;;;;;;26.40;63.30;101476.58;106927;1256;24368;-49
2023/07/13 02:43:03;;;;;;;5.00;3.10;;;;;;;26.41;63.08;101477.38;106807;1261;25533;-49
2023/07/13 02:45:32;;;;;;;3.60;2.70;;;;;;;26.41;62.89;101477.17;107156;1259;22999;-49
2023/07/13 02:47:59;;;;;;;5.00;2.70;;;;;;;26.42;62.57;101470.02;107083;1263;25530;-49
2023/07/13 02:50:26;;;;;;;7.30;2.80;;;;;;;26.43;62.22;101467.25;107103;1257;25357;-50
2023/07/13 02:52:53;;;;;;;6.60;3.30;;;;;;;26.43;62.02;101465.65;107113;1263;25385;-49
2023/07/13 02:55:20;;;;;;;6.40;2.60;;;;;;;26.44;62.08;101467.13;107115;1257;25405;-49
2023/07/13 02:57:47;;;;;;;3.80;2.80;;;;;;;26.45;62.22;101470.30;106876;1263;25412;-49
2023/07/13 03:00:16;;;;;;;5.70;3.20;;;;;;;26.46;62.17;101472.53;107108;1259;23285;-49
2023/07/13 03:02:44;;;;;;;4.60;3.30;;;;;;;26.47;62.26;101471.34;107086;1269;25331;-49
2023/07/13 03:05:12;;;;;;;6.10;3.20;;;;;;;26.48;62.32;101471.98;107101;1254;25509;-49
2023/07/13 03:07:39;;;;;;;10.00;3.30;;;;;;;26.49;62.47;101470.64;106937;1267;25404;-49
2023/07/13 03:10:07;;;;;;;4.00;2.90;;;;;;;26.50;62.54;101472.17;106932;1254;25477;-49
2023/07/13 03:12:40;;;;;;;7.50;3.20;;;;;;;26.50;62.66;101471.27;107087;1253;25412;-49
2023/07/13 03:15:11;;;;;;;7.10;3.20;;;;;;;26.51;62.69;101468.73;106959;1257;25395;-49
2023/07/13 03:17:40;;;;;;;7.20;3.50;;;;;;;26.52;62.84;101468.52;106827;1259;22535;-49
2023/07/13 03:20:09;;;;;;;6.70;3.40;;;;;;;26.53;62.78;101474.48;107018;1267;25428;-49
2023/07/13 03:22:36;;;;;;;4.30;3.20;;;;;;;26.53;62.89;101474.97;106911;1255;25234;-50
2023/07/13 03:25:04;;;;;;;6.20;4.10;;;;;;;26.54;62.99;101471.88;106932;1259;25363;-49
2023/07/13 03:27:31;;;;;;;4.30;3.00;;;;;;;26.66;62.84;101467.93;107016;1267;24385;-50
2023/07/13 03:29:58;;;;;;;5.90;3.20;;;;;;;26.70;62.77;101468.52;106858;1258;24266;-49
2023/07/13 03:32:26;;;;;;;5.70;3.10;;;;;;;26.71;62.89;101466.81;106934;1265;25351;-49
2023/07/13 03:34:53;;;;;;;7.70;3.10;;;;;;;26.72;62.93;101466.24;106906;1266;22624;-49
2023/07/13 03:37:21;;;;;;;9.00;3.50;;;;;;;26.72;63.06;101464.44;107132;1256;25341;-49
2023/07/13 03:39:48;;;;;;;4.30;3.10;;;;;;;26.74;63.19;101462.36;106844;1267;25404;-49
2023/07/13 03:42:16;;;;;;;7.10;4.20;;;;;;;26.75;63.24;101463.34;107080;1260;22642;-49
2023/07/13 03:44:50;;;;;;;5.70;3.80;;;;;;;26.77;63.38;101467.30;107079;1263;25332;-49
2023/07/13 03:47:18;;;;;;;5.50;3.60;;;;;;;26.78;63.54;101472.52;106888;1267;25476;-49
2023/07/13 03:49:46;;;;;;;4.30;3.00;;;;;;;26.80;63.65;101475.97;107003;1257;22530;-50
2023/07/13 03:52:13;;;;;;;6.50;3.00;;;;;;;26.81;63.65;101468.73;107109;1265;25416;-50
2023/07/13 03:54:41;;;;;;;7.60;3.60;;;;;;;26.82;63.82;101470.98;106964;1257;27303;-49
2023/07/13 03:57:09;;;;;;;6.50;3.00;;;;;;;26.82;63.95;101470.23;106996;1256;25360;-50
2023/07/13 03:59:36;;;;;;;5.90;3.30;;;;;;;26.82;64.04;101468.98;107199;1259;25382;-50
2023/07/13 04:02:04;;;;;;;8.90;3.90;;;;;;;26.83;64.25;101471.60;107057;1256;25505;-50
2023/07/13 04:04:33;;;;;;;8.00;3.50;;;;;;;26.83;64.33;101472.13;106933;1255;24270;-49
2023/07/13 04:07:01;;;;;;;7.20;3.40;;;;;;;26.83;64.40;101472.49;107071;1256;25364;-50
2023/07/13 04:09:28;;;;;;;6.80;3.50;;;;;;;26.84;64.38;101473.66;106950;1258;25424;-49
2023/07/13 04:11:55;;;;;;;6.40;3.70;;;;;;;26.84;64.48;101473.27;106811;1259;25399;-50
2023/07/13 04:14:22;;;;;;;7.50;4.10;;;;;;;26.86;64.65;101470.83;106932;1268;25325;-49
2023/07/13 04:16:49;;;;;;;8.60;3.40;;;;;;;26.87;64.50;101473.78;107113;1255;24637;-50
2023/07/13 04:19:17;;;;;;;8.00;3.20;;;;;;;26.88;64.72;101470.88;107046;1257;25378;-50
2023/07/13 04:21:45;;;;;;;8.90;3.70;;;;;;;26.89;64.76;101468.31;107124;1270;22526;-50
2023/07/13 04:24:13;;;;;;;9.70;3.80;;;;;;;26.90;64.87;101465.35;106923;1259;25447;-50
2023/07/13 04:26:40;;;;;;;6.10;3.40;;;;;;;26.91;64.89;101463.46;106844;1258;25383;-50
2023/07/13 04:29:07;;;;;;;7.40;3.50;;;;;;;26.93;64.89;101464.18;107097;1258;25389;-50
2023/07/13 04:31:34;;;;;;;7.80;3.40;;;;;;;26.95;64.93;101460.84;107059;1259;25325;-49
2023/07/13 04:34:02;;;;;;;8.80;3.10;;;;;;;26.98;64.94;101463.12;107201;1256;25401;-50
2023/07/13 04:36:29;;;;;;;7.10;4.00;;;;;;;26.99;65.04;101465.30;106913;1258;25380;-50
2023/07/13 04:38:56;;;;;;;9.00;4.30;;;;;;;27.02;65.09;101467.78;107118;1252;25349;-50
2023/07/13 04:41:23;;;;;;;10.50;3.30;;;;;;;27.04;65.18;101460.33;107018;1258;25450;-49
2023/07/13 04:43:50;;;;;;;7.00;3.80;;;;;;;27.06;65.23;101463.90;107063;1266;25353;-49
2023/07/13 04:46:18;;;;;;;5.30;3.40;;;;;;;27.08;65.27;101458.59;106769;1269;25466;-49
2023/07/13 04:48:46;;;;;;;6.70;3.40;;;;;;;27.10;65.28;101455.56;107050;1256;25360;-50
2023/07/13 04:51:14;;;;;;;5.00;3.70;;;;;;;27.11;65.32;101458.29;107017;1269;25361;-50
2023/07/13 04:53:41;;;;;;;6.90;3.70;;;;;;;27.13;65.26;101460.78;107034;1256;25412;-50
2023/07/13 04:56:08;;;;;;;8.50;3.80;;;;;;;27.16;65.29;101463.06;107102;1256;25360;-50
2023/07/13 04:58:37;;;;;;;9.30;3.60;;;;;;;27.17;65.34;101458.83;107062;1256;25482;-50
2023/07/13 05:01:05;;;;;;;7.70;3.60;;;;;;;27.19;65.35;101462.84;107083;1253;25385;-50
2023/07/13 05:03:32;;;;;;;8.60;3.60;;;;;;;27.22;65.26;101461.34;107073;1262;24203;-49
2023/07/13 05:06:02;;;;;;;8.50;4.10;;;;;;;27.24;65.28;101462.94;106812;1259;25332;-50
2023/07/13 05:08:29;;;;;;;8.00;3.70;;;;;;;27.25;65.20;101466.41;107112;1254;25428;-49
2023/07/13 05:10:57;;;;;;;6.10;3.50;;;;;;;27.25;65.19;101469.06;106730;1267;25332;-49
2023/07/13 05:13:25;;;;;;;7.30;3.20;;;;;;;27.26;65.06;101469.89;107072;1258;25385;-49
2023/07/13 05:16:01;;;;;;;5.80;3.30;;;;;;;27.27;65.07;101476.42;106844;1260;24256;-49
2023/07/13 05:18:29;;;;;;;6.30;3.10;;;;;;;27.29;65.07;101487.52;107226;1269;25336;-50
2023/07/13 05:21:04;;;;;;;5.90;3.20;;;;;;;27.31;64.91;101496.63;107068;1259;25335;-49
2023/07/13 05:23:32;;;;;;;6.10;3.40;;;;;;;27.35;64.97;101488.46;107137;1269;25484;-50
2023/07/13 05:25:59;;;;;;;8.30;3.80;;;;;;;27.43;64.79;101485.89;107064;1256;25364;-49
2023/07/13 05:28:27;;;;;;;8.80;3.60;;;;;;;27.54;64.71;101485.85;107095;1265;25332;-50
2023/07/13 05:30:55;;;;;;;8.80;3.80;;;;;;;27.68;64.15;101490.45;107088;1256;25354;-49
2023/07/13 05:33:23;;;;;;;8.10;3.70;;;;;;;27.80;63.47;101490.68;107081;1265;25401;-49
2023/07/13 05:35:50;;;;;;;5.60;3.30;;;;;;;27.92;63.05;101496.23;107121;1262;25364;-50
2023/07/13 05:38:17;;;;;;;7.90;3.90;;;;;;;28.04;62.66;101493.47;107047;1256;25328;-49
2023/07/13 05:40:45;;;;;;;6.90;3.90;;;;;;;28.18;62.00;101496.06;106895;1267;25315;-49
2023/07/13 05:43:12;;;;;;;8.50;4.30;;;;;;;28.31;61.45;101496.02;107134;1259;25434;-50
2023/07/13 05:45:40;;;;;;;6.40;3.40;;;;;;;28.41;60.44;101493.33;107021;1259;25348;-49
2023/07/13 05:48:07;;;;;;;10.10;4.80;;;;;;;28.52;60.03;101491.15;106667;1269;25339;-49
2023/07/13 05:50:35;;;;;;;10.10;3.90;;;;;;;28.64;59.63;101490.31;107126;1255;22526;-49
2023/07/13 05:53:02;;;;;;;10.70;4.50;;;;;;;28.80;59.19;101488.23;106803;1261;25787;-50
2023/07/13 05:55:29;;;;;;;7.20;4.10;;;;;;;28.95;58.68;101487.80;106811;1266;25324;-50
2023/07/13 05:57:57;;;;;;;8.10;3.80;;;;;;;29.12;58.20;101495.98;107048;1257;25401;-49
2023/07/13 06:00:25;;;;;;;9.10;3.70;;;;;;;29.28;57.85;101495.61;107056;1266;22525;-50
2023/07/13 06:02:52;;;;;;;7.70;3.40;;;;;;;29.43;57.52;101496.76;107108;1264;25575;-50
2023/07/13 06:05:19;;;;;;;11.40;4.30;;;;;;;29.56;57.21;101498.80;107039;1253;24212;-50
2023/07/13 06:07:47;;;;;;;6.50;3.50;;;;;;;29.69;56.94;101494.02;107060;1256;25396;-50
2023/07/13 06:10:14;;;;;;;6.70;3.90;;;;;;;29.82;56.61;101494.68;107102;1262;25342;-52
2023/07/13 06:12:41;;;;;;;7.70;3.80;;;;;;;29.93;56.15;101488.14;107034;1266;25415;-49
2023/07/13 06:15:09;;;;;;;9.30;3.70;;;;;;;30.02;55.88;101491.59;106742;1258;25315;-49
2023/07/13 06:17:36;;;;;;;6.70;3.50;;;;;;;30.09;55.44;101493.80;106941;1255;25425;-49
2023/07/13 06:20:04;;;;;;;12.60;4.30;;;;;;;30.16;55.22;101500.50;106920;1256;24210;-52
2023/07/13 06:22:31;;;;;;;9.10;3.50;;;;;;;30.20;54.88;101499.00;106959;1254;25455;-50
2023/07/13 06:24:58;;;;;;;8.40;3.90;;;;;;;30.23;54.77;101496.02;107026;1265;25517;-49
2023/07/13 06:27:25;;;;;;;11.70;4.40;;;;;;;30.25;54.67;101496.40;107095;1259;23365;-50
2023/07/13 06:29:52;;;;;;;4.80;3.20;;;;;;;30.25;54.68;101498.03;107107;1266;25412;-50
2023/07/13 06:32:19;;;;;;;9.50;3.80;;;;;;;30.24;54.77;101500.27;107191;1267;25322;-50
2023/07/13 06:34:46;;;;;;;7.70;3.90;;;;;;;30.22;54.75;101497.02;106800;1269;25488;-50
2023/07/13 06:37:13;;;;;;;9.20;3.90;;;;;;;30.21;54.88;101495.91;107129;1263;25313;-49
2023/07/13 06:39:40;;;;;;;8.00;4.00;;;;;;;30.18;54.97;101495.77;107098;1259;25381;-50
2023/07/13 06:42:07;;;;;;;6.90;3.40;;;;;;;30.15;55.00;101498.04;107078;1260;25485;-49
2023/07/13 06:44:34;;;;;;;9.70;3.50;;;;;;;30.12;55.16;101496.02;106939;1274;25360;-50
2023/07/13 06:47:02;;;;;;;9.20;4.10;;;;;;;30.09;55.18;101501.88;107090;1265;25412;-50
2023/07/13 06:49:29;;;;;;;6.90;3.40;;;;;;;30.07;55.12;101497.70;107052;1265;25335;-50
2023/07/13 06:51:56;;;;;;;7.50;3.30;;;;;;;30.05;55.03;101501.30;106854;1269;22533;-49
2023/07/13 06:54:23;;;;;;;7.50;3.50;;;;;;;30.05;54.91;101502.21;107238;1267;25473;-50
2023/07/13 06:56:50;;;;;;;4.70;2.90;;;;;;;30.04;54.95;101504.77;107156;1263;25363;-50
2023/07/13 06:59:18;;;;;;;9.30;3.80;;;;;;;30.07;54.84;101504.14;107165;1263;25449;-49
2023/07/13 07:01:45;;;;;;;7.30;4.30;;;;;;;30.09;54.93;101504.40;106771;1260;23977;-50
2023/07/13 07:04:13;;;;;;;9.50;3.50;;;;;;;30.13;54.67;101502.14;107129;1266;25294;-50
2023/07/13 07:06:42;;;;;;;7.20;3.90;;;;;;;30.20;54.68;101497.77;107125;1265;25519;-50
2023/07/13 07:09:09;;;;;;;8.00;3.30;;;;;;;30.27;54.34;101504.77;106793;1259;25385;-50
2023/07/13 07:11:36;;;;;;;8.10;3.40;;;;;;;30.35;54.19;101501.35;106896;1261;22531;-49
2023/07/13 07:14:04;;;;;;;7.20;3.40;;;;;;;30.46;53.97;101503.55;107091;1256;23338;-50
2023/07/13 07:16:32;;;;;;;5.40;3.00;;;;;;;30.58;53.78;101509.66;106852;1265;24198;-50
2023/07/13 07:18:59;;;;;;;7.40;3.10;;;;;;;30.70;53.27;101509.23;107178;1263;25367;-49
2023/07/13 07:21:27;;;;;;;6.30;3.30;;;;;;;30.84;52.97;101511.13;107235;1257;25391;-49
2023/07/13 07:23:54;;;;;;;7.00;3.90;;;;;;;30.93;52.61;101512.23;107080;1265;25325;-50
2023/07/13 07:26:20;;;;;;;5.80;3.90;;;;;;;31.00;52.56;101514.54;107152;1262;24204;-50
2023/07/13 07:28:52;;;;;;;7.00;3.40;;;;;;;31.05;52.28;101520.05;107068;1263;25323;-49
2023/07/13 07:31:39;;;;;;;8.00;4.50;;;;;;;31.04;52.01;101524.63;107048;1266;25332;-50
2023/07/13 07:34:09;;;;;;;6.60;3.50;;;;;;;30.97;52.08;101525.05;106813;1274;25316;-49
2023/07/13 07:36:36;;;;;;;10.10;3.40;;;;;;;30.88;52.16;101527.91;106985;1272;25400;-50
2023/07/13 07:39:06;;;;;;;10.90;4.10;;;;;;;30.78;52.46;101528.17;106971;1259;25338;-50
2023/07/13 07:41:34;;;;;;;7.80;3.60;;;;;;;30.67;52.82;101524.74;106966;1253;22747;-50
2023/07/13 07:44:04;;;;;;;7.80;3.80;;;;;;;30.56;53.35;101522.73;107008;1272;25309;-49
2023/07/13 07:46:31;;;;;;;8.70;3.50;;;;;;;30.46;53.53;101524.29;106784;1274;25337;-49
2023/07/13 07:48:59;;;;;;;10.50;4.00;;;;;;;30.38;53.62;101526.02;107169;1253;24240;-49
2023/07/13 07:51:26;;;;;;;10.70;4.70;;;;;;;30.29;53.94;101528.95;107170;1269;22632;-49
2023/07/13 07:53:53;;;;;;;8.40;4.20;;;;;;;30.22;54.20;101528.73;107109;1265;25408;-48
2023/07/13 07:56:20;;;;;;;6.30;3.10;;;;;;;30.15;54.54;101541.18;106822;1262;465555;-49
2023/07/13 07:58:50;;;;;;;7.50;3.60;;;;;;;30.09;54.88;101538.50;107110;1256;25350;-49
2023/07/13 08:01:20;;;;;;;5.30;3.30;;;;;;;30.04;54.94;101538.27;106808;1268;22598;-49
2023/07/13 08:03:50;;;;;;;8.30;3.90;;;;;;;29.98;55.18;101533.77;106934;1259;22527;-48
2023/07/13 08:06:23;;;;;;;8.60;4.00;;;;;;;29.94;55.36;101533.09;106752;1259;25396;-49
2023/07/13 08:08:53;;;;;;;9.40;4.60;;;;;;;29.89;55.55;101532.33;107082;1255;24083;-48
2023/07/13 08:11:20;;;;;;;11.40;3.60;;;;;;;29.86;55.67;101536.52;106868;1266;25471;-48
2023/07/13 08:13:51;;;;;;;7.60;3.90;;;;;;;29.84;55.82;101537.84;106906;1259;25262;-49
2023/07/13 08:16:22;;;;;;;;;;;;;;;29.80;55.86;101533.83;107042;1255;22493;-49
2023/07/13 08:18:49;;;;;;;7.00;3.80;;;;;;;29.78;56.12;101531.92;107028;1265;24257;-49
2023/07/13 08:21:16;;;;;;;5.90;3.70;;;;;;;29.76;56.13;101525.14;107137;1262;25322;-49
2023/07/13 08:23:43;;;;;;;8.10;3.80;;;;;;;29.74;56.36;101521.69;107177;1260;25409;-48
2023/07/13 08:26:10;;;;;;;7.90;4.00;;;;;;;29.73;56.40;101519.46;107107;1263;25446;-49
2023/07/13 08:28:37;;;;;;;6.30;3.80;;;;;;;29.74;56.62;101519.70;106845;1253;25335;-48
2023/07/13 08:31:05;;;;;;;9.30;4.50;;;;;;;29.75;56.44;101518.56;106853;1262;25481;-49
2023/07/13 08:33:34;;;;;;;7.90;3.80;;;;;;;29.77;56.67;101518.45;106804;1267;25350;-49
2023/07/13 08:36:01;;;;;;;7.20;3.50;;;;;;;29.78;56.60;101522.77;107070;1270;25332;-48
2023/07/13 08:38:29;;;;;;;7.40;3.60;;;;;;;29.79;56.65;101524.09;107097;1269;25337;-49
2023/07/13 08:40:56;;;;;;;9.10;4.10;;;;;;;29.78;56.60;101526.15;106927;1259;25333;-49
2023/07/13 08:43:28;;;;;;;7.30;3.60;;;;;;;29.77;56.70;101524.68;107138;1251;22554;-48
2023/07/13 08:46:32;;;;;;;8.30;4.10;;;;;;;29.75;56.83;101524.42;107063;1255;24641;-48
2023/07/13 08:49:03;;;;;;;6.30;3.60;;;;;;;29.77;56.77;101524.27;107136;1254;24363;-48
2023/07/13 08:51:35;;;;;;;11.30;4.00;;;;;;;29.79;56.67;101521.14;106915;1261;25360;-49
2023/07/13 08:54:11;;;;;;;6.60;3.50;;;;;;;29.79;56.67;101523.59;107131;1262;25322;-49
2023/07/13 08:56:39;;;;;;;9.90;3.80;;;;;;;29.79;56.67;101521.21;107111;1256;25388;-49
2023/07/13 08:59:18;;;;;;;8.50;3.60;;;;;;;29.82;56.87;101511.70;107068;1264;25332;-49
2023/07/13 09:02:06;;;;;;;5.80;3.80;;;;;;;29.82;56.87;101510.04;106909;1259;24049;-48
2023/07/13 09:04:58;;;;;;;8.60;3.80;;;;;;;29.84;56.83;101513.86;107181;1256;25468;-49
2023/07/13 09:07:41;;;;;;;10.20;4.40;;;;;;;29.86;56.98;101515.75;107088;1267;25329;-49
2023/07/13 09:10:33;;;;;;;8.20;3.80;;;;;;;29.88;56.91;101517.20;106919;1273;25360;-48
2023/07/13 09:13:31;;;;;;;10.30;3.70;;;;;;;29.90;57.11;101515.23;107056;1256;22542;-48
2023/07/13 09:15:59;;;;;;;8.40;3.80;;;;;;;29.92;57.02;101512.15;107136;1256;25353;-48
2023/07/13 09:18:35;;;;;;;9.40;4.30;;;;;;;29.93;57.13;101508.14;106744;1269;25481;-48
2023/07/13 09:21:17;;;;;;;11.30;4.40;;;;;;;29.94;57.13;101507.74;106870;1267;25350;-49
2023/07/13 09:23:45;;;;;;;8.10;3.80;;;;;;;29.94;57.35;101504.10;107139;1256;24208;-49
2023/07/13 09:26:12;;;;;;;11.40;3.90;;;;;;;29.95;57.48;101496.84;106786;1260;25398;-48
2023/07/13 09:28:47;;;;;;;8.50;3.70;;;;;;;29.99;57.36;101490.21;106861;1273;25373;-48
2023/07/13 09:31:16;;;;;;;7.30;3.70;;;;;;;30.03;57.47;101486.45;107095;1265;25373;-49
2023/07/13 09:33:45;;;;;;;11.10;4.40;;;;;;;30.08;57.26;101488.54;107140;1256;22530;-48
2023/07/13 09:36:27;;;;;;;7.00;3.90;;;;;;;30.12;56.78;101487.44;107141;1259;25360;-48
2023/07/13 09:39:03;;;;;;;9.00;4.40;;;;;;;30.13;56.18;101482.09;107360;1266;22536;-48
2023/07/13 09:41:38;;;;;;;8.80;4.10;;;;;;;30.12;56.72;101482.44;107077;1272;25472;-49
2023/07/13 09:44:11;;;;;;;9.70;4.10;;;;;;;30.11;56.65;101476.93;107265;1262;25790;-48
2023/07/13 09:46:43;;;;;;;12.30;4.70;;;;;;;30.08;56.86;101479.54;107945;1255;24268;-48
2023/07/13 09:49:12;;;;;;;11.30;3.90;;;;;;;30.10;56.33;101480.11;107108;1268;23412;-49
2023/07/13 09:51:41;;;;;;;9.50;4.30;;;;;;;30.10;56.09;101479.36;106613;1254;23134;-49
2023/07/13 09:54:26;;;;;;;8.70;4.30;;;;;;;30.09;55.67;101475.20;107212;1268;25346;-50
2023/07/13 09:56:58;;;;;;;14.90;4.50;;;;;;;30.06;55.45;101475.80;106863;1265;25485;-51
2023/07/13 09:59:36;;;;;;;10.30;4.70;;;;;;;30.03;55.47;101472.71;106972;1266;22526;-51
2023/07/13 10:02:23;;;;;;;10.80;4.10;;;;;;;30.00;55.71;101470.30;106840;1259;22523;-50
2023/07/13 10:05:04;;;;;;;10.60;4.30;;;;;;;29.98;55.69;101470.49;106606;1275;25370;-50
2023/07/13 10:07:32;;;;;;;;;;;;;;;29.96;55.70;101471.54;107249;1267;24347;-49
2023/07/13 10:10:00;;;;;;;7.60;3.90;;;;;;;29.96;55.68;101463.48;107221;1256;25014;-48
2023/07/13 10:12:29;;;;;;;11.80;4.20;;;;;;;29.97;55.71;101455.89;107426;1263;22539;-49
2023/07/13 10:14:58;;;;;;;9.80;4.30;;;;;;;30.00;55.53;101457.23;107152;1263;22572;-49
2023/07/13 10:17:46;;;;;;;9.40;4.20;;;;;;;30.03;55.90;101455.52;107052;1257;23227;-49
2023/07/13 10:20:13;;;;;;;10.80;4.30;;;;;;;30.07;55.52;101452.33;106856;1266;25385;-49
2023/07/13 10:23:04;;;;;;;9.70;4.80;;;;;;;30.10;55.54;101452.21;106759;1269;26656;-49
2023/07/13 10:25:34;;;;;;;8.30;4.40;;;;;;;30.13;55.62;101451.67;106997;1269;25412;-50
2023/07/13 10:28:06;;;;;;;13.80;5.30;;;;;;;30.17;55.95;101446.33;106958;1258;25407;-50
2023/07/13 10:30:35;;;;;;;9.80;4.20;;;;;;;30.20;55.96;101447.45;106908;1269;22765;-49
2023/07/13 10:33:04;;;;;;;11.20;4.90;;;;;;;30.25;55.98;101437.89;107138;1256;25354;-49
2023/07/13 10:35:31;;;;;;;8.30;4.30;;;;;;;30.28;55.71;101431.36;107129;1269;25373;-50
2023/07/13 10:38:06;;;;;;;10.00;4.00;;;;;;;30.29;55.75;101424.29;107057;1256;22569;-49
2023/07/13 10:40:37;;;;;;;11.00;4.10;;;;;;;30.28;55.78;101413.20;106769;1273;24188;-49
2023/07/13 10:43:18;;;;;;;9.90;4.10;;;;;;;30.29;55.67;101410.66;107532;1271;24202;-49
2023/07/13 10:45:45;;;;;;;12.90;4.40;;;;;;;30.31;55.92;101412.46;107091;1266;24868;-49
2023/07/13 10:48:13;;;;;;;10.60;4.50;;;;;;;30.30;55.52;101412.21;107120;1261;25318;-49
2023/07/13 10:50:45;;;;;;;8.40;4.50;;;;;;;30.31;55.99;101410.68;107059;1257;22646;-49
2023/07/13 10:53:30;;;;;;;10.50;4.90;;;;;;;30.31;55.71;101407.12;106813;1259;24316;-50
2023/07/13 10:55:59;;;;;;;7.10;3.90;;;;;;;30.32;55.94;101408.98;107096;1266;25450;-49
2023/07/13 10:58:37;;;;;;;11.20;4.50;;;;;;;30.32;55.92;101405.17;107023;1272;25470;-49
2023/07/13 11:01:17;;;;;;;13.30;5.10;;;;;;;30.33;55.77;101400.48;107176;1257;22669;-50
2023/07/13 11:03:58;;;;;;;12.60;4.50;;;;;;;30.34;55.92;101401.96;106896;1257;24148;-49
2023/07/13 11:06:31;;;;;;;11.40;4.70;;;;;;;30.34;56.07;101399.59;106818;1265;25731;-49
2023/07/13 11:09:03;;;;;;;8.50;4.40;;;;;;;30.35;55.63;101404.88;106819;1260;25332;-49
2023/07/13 11:11:31;;;;;;;7.60;3.80;;;;;;;30.36;55.53;101403.60;106408;1269;24333;-49
2023/07/13 11:14:05;;;;;;;10.00;4.30;;;;;;;30.36;55.80;101406.06;106694;1265;24760;-49
2023/07/13 11:16:37;;;;;;;11.70;5.30;;;;;;;30.38;55.83;101405.85;107090;1256;24412;-48
2023/07/13 11:19:05;;;;;;;13.50;4.70;;;;;;;30.40;55.44;101396.91;107087;1265;25322;-49
2023/07/13 11:21:32;;;;;;;10.50;4.70;;;;;;;30.42;55.26;101390.25;106856;1265;25489;-49
2023/07/13 11:24:04;;;;;;;12.20;4.90;;;;;;;30.43;55.28;101392.82;107543;1254;25312;-49
2023/07/13 11:26:48;;;;;;;10.90;5.00;;;;;;;30.43;55.20;101397.17;106953;1260;22540;-49
2023/07/13 11:29:15;;;;;;;9.30;5.40;;;;;;;30.43;55.41;101394.84;107231;1257;22530;-49